createdAt,value
2022-12-03T00:00:12.755Z,-1.30
2022-12-03T00:02:41.447Z,-1.40
2022-12-03T00:05:10.083Z,-1.30
2022-12-03T00:07:37.604Z,-1.30
2022-12-03T00:10:06.410Z,-1.30
2022-12-03T00:12:34.147Z,-1.30
2022-12-03T00:15:01.653Z,-1.30
2022-12-03T00:17:29.178Z,-1.30
2022-12-03T00:19:56.620Z,-1.20
2022-12-03T00:22:24.129Z,-1.30
2022-12-03T00:24:51.941Z,-1.30
2022-12-03T00:27:19.667Z,-1.30
2022-12-03T00:29:47.110Z,-1.40
2022-12-03T00:32:14.485Z,-1.30
2022-12-03T00:34:41.913Z,-1.20
2022-12-03T00:37:09.365Z,-1.30
2022-12-03T00:39:36.811Z,-1.30
2022-12-03T00:42:04.712Z,-1.30
2022-12-03T00:44:32.161Z,-1.30
2022-12-03T00:46:59.638Z,-1.30
2022-12-03T00:49:27.176Z,-1.30
2022-12-03T00:51:54.619Z,-1.40
2022-12-03T00:54:25.629Z,-1.40
2022-12-03T00:56:57.595Z,-1.30
2022-12-03T00:59:25.029Z,-1.30
2022-12-03T01:01:52.717Z,-1.30
2022-12-03T01:04:20.409Z,-1.40
2022-12-03T01:06:47.895Z,-1.40
2022-12-03T01:09:15.379Z,-1.40
2022-12-03T01:11:42.838Z,-1.40
2022-12-03T01:14:17.873Z,-1.30
2022-12-03T01:16:46.246Z,-1.30
2022-12-03T01:19:17.756Z,-1.20
2022-12-03T01:22:50.659Z,-1.20
2022-12-03T01:25:18.411Z,-1.20
2022-12-03T01:27:45.896Z,-1.30
2022-12-03T01:30:14.264Z,-1.30
2022-12-03T01:32:41.656Z,-1.30
2022-12-03T01:35:09.530Z,-1.40
2022-12-03T01:37:37.027Z,-1.40
2022-12-03T01:40:06.239Z,-1.30
2022-12-03T01:42:41.801Z,-1.30
2022-12-03T01:45:24.173Z,-1.30
2022-12-03T01:47:51.856Z,-1.30
2022-12-03T01:50:32.455Z,-1.30
2022-12-03T01:53:03.338Z,-1.30
2022-12-03T01:55:31.130Z,-1.20
2022-12-03T01:58:01.209Z,-1.20
2022-12-03T02:00:29.365Z,-1.20
2022-12-03T02:03:12.023Z,-1.20
2022-12-03T02:05:39.681Z,-1.30
2022-12-03T02:08:29.967Z,-1.30
2022-12-03T02:11:30.697Z,-1.30
2022-12-03T02:14:09.012Z,-1.30
2022-12-03T02:16:39.657Z,-1.30
2022-12-03T02:19:25.821Z,-1.30
2022-12-03T02:22:15.915Z,-1.30
2022-12-03T02:25:07.257Z,-1.30
2022-12-03T02:27:34.684Z,-1.20
2022-12-03T02:30:02.328Z,-1.20
2022-12-03T02:32:29.774Z,-1.20
2022-12-03T02:34:57.221Z,-1.20
2022-12-03T02:37:31.454Z,-1.30
2022-12-03T02:40:06.439Z,-1.30
2022-12-03T02:42:36.951Z,-1.30
2022-12-03T02:45:08.664Z,-1.30
2022-12-03T02:47:45.733Z,-1.30
2022-12-03T02:50:17.691Z,-1.30
2022-12-03T02:52:46.803Z,-1.30
2022-12-03T02:55:17.305Z,-1.30
2022-12-03T02:57:47.320Z,-1.30
2022-12-03T03:00:16.793Z,-1.30
2022-12-03T03:02:46.439Z,-1.30
2022-12-03T03:05:15.427Z,-1.20
2022-12-03T03:07:43.141Z,-1.20
2022-12-03T03:10:15.703Z,-1.30
2022-12-03T03:12:43.671Z,-1.20
2022-12-03T03:15:12.512Z,-1.20
2022-12-03T03:17:40.812Z,-1.20
2022-12-03T03:20:10.192Z,-1.20
2022-12-03T03:22:41.756Z,-1.30
2022-12-03T03:25:18.329Z,-1.20
2022-12-03T03:27:46.124Z,-1.30
2022-12-03T03:30:14.569Z,-1.30
2022-12-03T03:32:42.970Z,-1.30
2022-12-03T03:35:12.339Z,-1.30
2022-12-03T03:37:40.034Z,-1.30
2022-12-03T03:40:08.901Z,-1.30
2022-12-03T03:42:36.816Z,-1.40
2022-12-03T03:45:06.595Z,-1.30
2022-12-03T03:47:34.219Z,-1.30
2022-12-03T03:50:02.307Z,-1.30
2022-12-03T03:52:30.503Z,-1.30
2022-12-03T03:54:58.203Z,-1.20
2022-12-03T03:57:25.828Z,-1.10
2022-12-03T03:59:53.248Z,-1.00
2022-12-03T04:02:23.413Z,-0.90
2022-12-03T04:04:51.907Z,-0.90
2022-12-03T04:07:19.916Z,-1.00
2022-12-03T04:09:47.407Z,-1.10
2022-12-03T04:12:33.466Z,-1.10
2022-12-03T04:15:00.957Z,-1.10
2022-12-03T04:17:28.388Z,-1.20
2022-12-03T04:19:56.190Z,-1.10
2022-12-03T04:22:42.003Z,-1.00
2022-12-03T04:25:29.341Z,-1.00
2022-12-03T04:28:15.423Z,-1.00
2022-12-03T04:30:42.932Z,-0.90
2022-12-03T04:33:28.926Z,-0.90
2022-12-03T04:35:56.507Z,-0.90
2022-12-03T04:38:24.123Z,-1.00
2022-12-03T04:41:06.515Z,-1.10
2022-12-03T04:43:55.287Z,-1.10
2022-12-03T04:46:22.818Z,-1.10
2022-12-03T04:48:50.239Z,-1.20
2022-12-03T04:51:17.655Z,-1.20
2022-12-03T04:53:46.366Z,-1.20
2022-12-03T04:56:13.971Z,-1.20
2022-12-03T04:58:41.415Z,-1.10
2022-12-03T05:01:08.845Z,-1.10
2022-12-03T05:03:36.448Z,-1.20
2022-12-03T05:06:04.212Z,-1.20
2022-12-03T05:08:31.667Z,-1.20
2022-12-03T05:10:59.070Z,-1.30
2022-12-03T05:13:26.416Z,-1.30
2022-12-03T05:15:53.843Z,-1.30
2022-12-03T05:18:21.257Z,-1.30
2022-12-03T05:20:53.270Z,-1.30
2022-12-03T05:23:21.481Z,-1.30
2022-12-03T05:25:49.094Z,-1.30
2022-12-03T05:28:16.796Z,-1.20
2022-12-03T05:30:44.358Z,-1.20
2022-12-03T05:33:11.871Z,-1.20
2022-12-03T05:35:39.273Z,-1.30
2022-12-03T05:38:06.715Z,-1.20
2022-12-03T05:40:34.227Z,-1.20
2022-12-03T05:43:02.017Z,-1.20
2022-12-03T05:45:33.389Z,-1.20
2022-12-03T05:48:02.469Z,-1.20
2022-12-03T05:50:34.455Z,-1.10
2022-12-03T05:53:02.228Z,-1.20
2022-12-03T05:55:30.345Z,-1.10
2022-12-03T05:57:58.112Z,-1.10
2022-12-03T06:00:29.514Z,-1.10
2022-12-03T06:02:57.643Z,-1.10
2022-12-03T06:05:26.075Z,-1.10
2022-12-03T06:07:54.131Z,-1.10
2022-12-03T06:10:24.902Z,-1.20
2022-12-03T06:12:52.770Z,-1.20
2022-12-03T06:15:20.893Z,-1.10
2022-12-03T06:17:48.359Z,-1.20
2022-12-03T06:20:20.508Z,-1.20
2022-12-03T06:22:48.400Z,-1.20
2022-12-03T06:25:16.721Z,-1.20
2022-12-03T06:27:44.619Z,-1.20
2022-12-03T06:30:15.386Z,-1.10
2022-12-03T06:32:42.799Z,-1.10
2022-12-03T06:35:10.643Z,-1.20
2022-12-03T06:37:38.090Z,-1.20
2022-12-03T06:40:06.526Z,-1.20
2022-12-03T06:42:33.919Z,-1.20
2022-12-03T06:45:01.259Z,-1.20
2022-12-03T06:47:28.755Z,-1.20
2022-12-03T06:49:56.151Z,-1.10
2022-12-03T06:52:24.231Z,-1.10
2022-12-03T06:54:52.028Z,-1.20
2022-12-03T06:57:19.648Z,-1.20
2022-12-03T06:59:47.089Z,-1.10
2022-12-03T07:02:14.532Z,-1.10
2022-12-03T07:04:46.103Z,-1.10
2022-12-03T07:07:14.910Z,-1.10
2022-12-03T07:09:42.356Z,-1.10
2022-12-03T07:12:09.804Z,-1.10
2022-12-03T07:14:37.255Z,-1.00
2022-12-03T07:17:04.774Z,-1.00
2022-12-03T07:19:33.064Z,-1.10
2022-12-03T07:22:01.223Z,-1.00
2022-12-03T07:24:28.821Z,-1.00
2022-12-03T07:26:56.262Z,-1.00
2022-12-03T07:29:23.715Z,-1.00
2022-12-03T07:31:51.483Z,-1.00
2022-12-03T07:34:19.069Z,-1.00
2022-12-03T07:36:46.479Z,-1.00
2022-12-03T07:39:14.500Z,-1.00
2022-12-03T07:41:41.949Z,-0.90
2022-12-03T07:44:14.305Z,-0.90
2022-12-03T07:46:43.472Z,-0.90
2022-12-03T07:49:12.403Z,-0.80
2022-12-03T07:51:40.070Z,-0.80
2022-12-03T07:54:07.803Z,-0.80
2022-12-03T07:56:35.317Z,-0.70
2022-12-03T07:59:02.847Z,-0.80
2022-12-03T08:01:30.452Z,-0.80
2022-12-03T08:03:58.042Z,-0.80
2022-12-03T08:06:25.487Z,-0.70
2022-12-03T08:08:52.918Z,-0.70
2022-12-03T08:11:20.319Z,-0.60
2022-12-03T08:13:47.788Z,-0.60
2022-12-03T08:16:21.530Z,-0.70
2022-12-03T08:18:51.094Z,-0.60
2022-12-03T08:21:21.184Z,-0.60
2022-12-03T08:23:48.802Z,-0.50
2022-12-03T08:26:26.080Z,-0.40
2022-12-03T08:28:54.617Z,-0.50
2022-12-03T08:31:33.471Z,-0.50
2022-12-03T08:34:27.000Z,-0.50
2022-12-03T08:37:02.375Z,-0.40
2022-12-03T08:39:38.002Z,-0.40
2022-12-03T08:42:26.846Z,-0.40
2022-12-03T08:44:55.934Z,-0.30
2022-12-03T08:47:24.857Z,-0.40
2022-12-03T08:50:03.475Z,-0.30
2022-12-03T08:52:35.049Z,-0.30
2022-12-03T08:55:35.150Z,-0.30
2022-12-03T08:58:23.622Z,-0.30
2022-12-03T09:01:12.617Z,-0.20
2022-12-03T09:03:49.713Z,-0.10
2022-12-03T09:06:17.384Z,-0.10
2022-12-03T09:08:45.217Z,-0.10
2022-12-03T09:11:13.291Z,0.00
2022-12-03T09:13:41.161Z,0.10
2022-12-03T09:16:08.961Z,0.20
2022-12-03T09:18:36.520Z,0.20
2022-12-03T09:21:04.084Z,0.20
2022-12-03T09:23:31.443Z,0.30
2022-12-03T09:25:59.756Z,0.30
2022-12-03T09:28:27.199Z,0.30
2022-12-03T09:30:54.607Z,0.30
2022-12-03T09:33:22.261Z,0.40
2022-12-03T09:35:49.685Z,0.40
2022-12-03T09:38:17.058Z,0.40
2022-12-03T09:40:44.536Z,0.70
2022-12-03T09:43:13.369Z,0.70
2022-12-03T09:45:40.943Z,0.90
2022-12-03T09:48:08.545Z,1.00
2022-12-03T09:50:41.735Z,0.90
2022-12-03T09:53:16.550Z,0.90
2022-12-03T09:55:46.757Z,0.80
2022-12-03T09:58:18.755Z,0.70
2022-12-03T10:01:01.421Z,0.60
2022-12-03T10:03:32.228Z,0.80
2022-12-03T10:05:59.716Z,0.80
2022-12-03T10:08:32.656Z,0.80
2022-12-03T10:11:00.189Z,0.80
2022-12-03T10:13:31.088Z,1.00
2022-12-03T10:16:01.429Z,1.00
2022-12-03T10:18:38.212Z,0.90
2022-12-03T10:21:39.176Z,1.00
2022-12-03T10:24:36.014Z,1.10
2022-12-03T10:27:24.197Z,1.00
2022-12-03T10:30:00.582Z,1.10
2022-12-03T10:32:42.417Z,1.10
2022-12-03T10:35:13.732Z,1.10
2022-12-03T10:38:25.348Z,1.10
2022-12-03T10:40:53.402Z,1.30
2022-12-03T10:43:24.372Z,1.20
2022-12-03T10:46:12.360Z,1.10
2022-12-03T10:48:40.071Z,1.30
2022-12-03T10:51:22.980Z,1.40
2022-12-03T10:53:51.635Z,1.40
2022-12-03T10:56:26.251Z,1.40
2022-12-03T10:58:54.819Z,1.40
2022-12-03T11:01:25.635Z,1.40
2022-12-03T11:03:56.969Z,1.40
2022-12-03T11:06:24.505Z,1.40
2022-12-03T11:08:57.803Z,1.40
2022-12-03T11:11:31.481Z,1.20
2022-12-03T11:14:04.486Z,1.30
2022-12-03T11:16:41.174Z,1.40
2022-12-03T11:19:37.569Z,1.50
2022-12-03T11:22:05.159Z,1.50
2022-12-03T11:24:36.981Z,1.50
2022-12-03T11:27:04.273Z,1.50
2022-12-03T11:30:00.128Z,1.60
2022-12-03T11:32:42.292Z,1.50
2022-12-03T11:35:13.958Z,1.40
2022-12-03T11:37:41.529Z,1.50
2022-12-03T11:40:17.956Z,1.50
2022-12-03T11:42:47.774Z,1.60
2022-12-03T11:45:35.764Z,1.60
2022-12-03T11:48:12.876Z,1.60
2022-12-03T11:50:53.401Z,1.50
2022-12-03T11:53:25.517Z,1.50
2022-12-03T11:56:09.286Z,1.50
2022-12-03T11:58:40.160Z,1.50
2022-12-03T12:01:08.804Z,1.40
2022-12-03T12:03:44.707Z,1.50
2022-12-03T12:06:16.588Z,1.50
2022-12-03T12:08:53.034Z,1.40
2022-12-03T12:11:33.685Z,1.40
2022-12-03T12:14:09.355Z,1.50
2022-12-03T12:16:53.263Z,1.50
2022-12-03T12:19:43.251Z,1.50
2022-12-03T12:22:18.216Z,1.40
2022-12-03T12:24:51.860Z,1.40
2022-12-03T12:27:45.196Z,1.30
2022-12-03T12:30:19.524Z,1.30
2022-12-03T12:33:08.996Z,1.40
2022-12-03T12:35:37.118Z,1.40
2022-12-03T12:38:07.620Z,1.40
2022-12-03T12:40:39.504Z,1.40
2022-12-03T12:43:25.687Z,1.30
2022-12-03T12:46:18.760Z,1.30
2022-12-03T12:48:49.227Z,1.40
2022-12-03T12:51:21.676Z,1.40
2022-12-03T12:53:50.437Z,1.40
2022-12-03T12:56:24.855Z,1.40
2022-12-03T12:58:53.952Z,1.40
2022-12-03T13:01:32.440Z,1.30
2022-12-03T13:03:59.940Z,1.30
2022-12-03T13:06:31.110Z,1.30
2022-12-03T13:09:01.387Z,1.20
2022-12-03T13:11:45.841Z,1.20
2022-12-03T13:14:33.640Z,1.30
2022-12-03T13:17:17.361Z,1.30
2022-12-03T13:20:01.986Z,1.20
2022-12-03T13:22:32.717Z,1.20
2022-12-03T13:25:57.779Z,1.10
2022-12-03T13:28:22.532Z,1.10
2022-12-03T13:30:50.626Z,1.10
2022-12-03T13:33:27.850Z,1.20
2022-12-03T13:35:56.618Z,1.10
2022-12-03T13:38:26.039Z,1.10
2022-12-03T13:41:00.672Z,1.10
2022-12-03T13:43:33.471Z,1.10
2022-12-03T13:46:01.429Z,1.00
2022-12-03T13:48:35.776Z,1.00
2022-12-03T13:51:24.092Z,1.10
2022-12-03T13:53:51.760Z,1.00
2022-12-03T13:56:30.608Z,1.00
2022-12-03T13:59:00.705Z,1.00
2022-12-03T14:01:29.237Z,0.90
2022-12-03T14:03:57.259Z,0.90
2022-12-03T14:06:24.664Z,0.90
2022-12-03T14:08:52.094Z,0.90
2022-12-03T14:11:38.065Z,0.90
2022-12-03T14:14:05.598Z,0.90
2022-12-03T14:16:33.135Z,0.90
2022-12-03T14:19:00.784Z,0.80
2022-12-03T14:21:28.277Z,0.80
2022-12-03T14:23:55.732Z,0.80
2022-12-03T14:26:23.158Z,0.80
2022-12-03T14:28:50.643Z,0.80
2022-12-03T14:31:18.089Z,0.70
2022-12-03T14:33:45.633Z,0.70
2022-12-03T14:36:13.057Z,0.60
2022-12-03T14:38:40.475Z,0.60
2022-12-03T14:41:27.839Z,0.70
2022-12-03T14:43:55.327Z,0.60
2022-12-03T14:46:22.836Z,0.70
2022-12-03T14:48:50.366Z,0.70
2022-12-03T14:51:17.850Z,0.60
2022-12-03T14:53:45.281Z,0.60
2022-12-03T14:56:12.741Z,0.60
2022-12-03T14:58:40.361Z,0.60
2022-12-03T15:01:08.017Z,0.60
2022-12-03T15:03:35.470Z,0.70
2022-12-03T15:06:02.930Z,0.60
2022-12-03T15:08:30.351Z,0.70
2022-12-03T15:10:57.831Z,0.80
2022-12-03T15:13:25.249Z,0.80
2022-12-03T15:15:52.672Z,0.70
2022-12-03T15:18:20.089Z,0.70
2022-12-03T15:20:47.585Z,0.70
2022-12-03T15:23:14.986Z,0.70
2022-12-03T15:25:42.582Z,0.80
2022-12-03T15:28:10.721Z,0.80
2022-12-03T15:30:38.348Z,0.80
2022-12-03T15:33:05.892Z,0.90
2022-12-03T15:35:33.749Z,0.80
2022-12-03T15:38:01.327Z,0.80
2022-12-03T15:40:29.057Z,0.70
2022-12-03T15:42:56.533Z,0.70
2022-12-03T15:45:24.061Z,0.70
2022-12-03T15:47:51.524Z,0.60
2022-12-03T15:50:18.937Z,0.70
2022-12-03T15:52:46.330Z,0.70
2022-12-03T15:55:13.984Z,0.80
2022-12-03T15:57:41.492Z,0.70
2022-12-03T16:00:11.082Z,0.70
2022-12-03T16:02:38.576Z,0.70
2022-12-03T16:05:10.611Z,0.70
2022-12-03T16:07:38.675Z,0.70
2022-12-03T16:10:08.900Z,0.70
2022-12-03T16:12:36.367Z,0.70
2022-12-03T16:15:04.514Z,0.70
2022-12-03T16:17:31.929Z,0.70
2022-12-03T16:19:59.422Z,0.60
2022-12-03T16:22:26.818Z,0.70
2022-12-03T16:24:54.214Z,0.70
2022-12-03T16:27:25.430Z,0.70
2022-12-03T16:29:53.561Z,0.70
2022-12-03T16:32:21.249Z,0.70
2022-12-03T16:34:49.294Z,0.70
2022-12-03T16:37:16.760Z,0.70
2022-12-03T16:39:44.330Z,0.70
2022-12-03T16:42:16.932Z,0.70
2022-12-03T16:45:14.516Z,0.70
2022-12-03T16:47:41.965Z,0.70
2022-12-03T16:50:14.607Z,0.80
2022-12-03T16:52:47.463Z,0.80
2022-12-03T16:55:14.934Z,0.90
2022-12-03T16:57:42.380Z,0.80
2022-12-03T17:00:10.660Z,1.00
2022-12-03T17:02:38.140Z,1.00
2022-12-03T17:05:06.227Z,0.90
2022-12-03T17:07:33.721Z,0.90
2022-12-03T17:10:01.311Z,0.90
2022-12-03T17:12:37.611Z,0.90
2022-12-03T17:15:15.707Z,0.90
2022-12-03T17:17:43.118Z,0.90
2022-12-03T17:20:12.685Z,1.00
2022-12-03T17:22:40.598Z,1.00
2022-12-03T17:25:08.943Z,1.00
2022-12-03T17:27:40.820Z,0.90
2022-12-03T17:30:13.027Z,0.90
2022-12-03T17:32:40.758Z,0.90
2022-12-03T17:35:09.470Z,0.90
2022-12-03T17:37:37.544Z,1.00
2022-12-03T17:40:06.994Z,1.10
2022-12-03T17:42:34.710Z,1.10
2022-12-03T17:45:02.377Z,1.00
2022-12-03T17:47:29.913Z,1.00
2022-12-03T17:49:57.816Z,1.00
2022-12-03T17:52:25.282Z,1.00
2022-12-03T17:55:10.862Z,1.00
2022-12-03T17:57:39.575Z,1.00
2022-12-03T18:00:08.055Z,1.00
2022-12-03T18:02:35.435Z,1.10
2022-12-03T18:05:02.868Z,1.20
2022-12-03T18:07:30.336Z,1.20
2022-12-03T18:09:58.679Z,1.20
2022-12-03T18:12:26.266Z,1.30
2022-12-03T18:14:53.697Z,1.30
2022-12-03T18:17:21.097Z,1.30
2022-12-03T18:19:48.714Z,1.30
2022-12-03T18:22:16.811Z,1.30
2022-12-03T18:24:46.285Z,1.30
2022-12-03T18:27:15.111Z,1.30
2022-12-03T18:29:42.522Z,1.30
2022-12-03T18:32:27.154Z,1.30
2022-12-03T18:34:56.816Z,1.30
2022-12-03T18:37:28.368Z,1.30
2022-12-03T18:39:57.135Z,1.20
2022-12-03T18:42:25.685Z,1.20
2022-12-03T18:44:55.987Z,1.20
2022-12-03T18:47:28.235Z,1.30
2022-12-03T18:49:56.720Z,1.20
2022-12-03T18:52:25.313Z,1.30
2022-12-03T18:54:53.277Z,1.30
2022-12-03T18:57:20.788Z,1.30
2022-12-03T18:59:48.247Z,1.30
2022-12-03T19:05:09.872Z,1.30
2022-12-03T19:07:37.826Z,1.20
2022-12-03T19:10:06.786Z,1.20
2022-12-03T19:12:34.518Z,1.10
2022-12-03T19:15:03.010Z,1.10
2022-12-03T19:17:30.471Z,1.20
2022-12-03T19:19:58.277Z,1.20
2022-12-03T19:22:25.833Z,1.20
2022-12-03T19:24:53.296Z,1.20
2022-12-03T19:27:20.721Z,1.20
2022-12-03T19:29:51.325Z,1.30
2022-12-03T19:32:18.824Z,1.40
2022-12-03T19:34:46.299Z,1.30
2022-12-03T19:37:13.769Z,1.20
2022-12-03T19:39:41.499Z,1.20
2022-12-03T19:42:09.492Z,1.10
2022-12-03T19:44:37.027Z,1.20
2022-12-03T19:47:04.455Z,1.20
2022-12-03T19:49:32.021Z,1.20
2022-12-03T19:51:59.454Z,1.20
2022-12-03T19:54:27.051Z,1.20
2022-12-03T19:56:54.491Z,1.10
2022-12-03T19:59:22.002Z,1.20
2022-12-03T20:01:49.556Z,1.10
2022-12-03T20:04:17.139Z,1.10
2022-12-03T20:06:45.584Z,1.10
2022-12-03T20:09:18.039Z,1.10
2022-12-03T20:11:46.126Z,1.20
2022-12-03T20:14:18.032Z,1.20
2022-12-03T20:16:46.164Z,1.10
2022-12-03T20:19:16.505Z,1.20
2022-12-03T20:21:45.042Z,1.20
2022-12-03T20:24:17.486Z,1.20
2022-12-03T20:26:45.124Z,1.20
2022-12-03T20:29:12.938Z,1.20
2022-12-03T20:31:40.548Z,1.20
2022-12-03T20:34:08.303Z,1.20
2022-12-03T20:36:35.874Z,1.20
2022-12-03T20:39:06.285Z,1.20
2022-12-03T20:41:36.526Z,1.30
2022-12-03T20:44:06.456Z,1.30
2022-12-03T20:46:34.195Z,1.30
2022-12-03T20:49:01.860Z,1.30
2022-12-03T20:52:06.331Z,1.40
2022-12-03T20:54:33.784Z,1.40
2022-12-03T20:57:01.260Z,1.40
2022-12-03T20:59:28.941Z,1.30
2022-12-03T21:01:57.180Z,1.30
2022-12-03T21:04:24.820Z,1.40
2022-12-03T21:06:52.312Z,1.30
2022-12-03T21:09:19.906Z,1.40
2022-12-03T21:11:47.348Z,1.30
2022-12-03T21:14:14.755Z,1.30
2022-12-03T21:17:07.208Z,1.30
2022-12-03T21:19:33.852Z,1.30
2022-12-03T21:22:01.291Z,1.20
2022-12-03T21:24:28.832Z,1.20
2022-12-03T21:26:56.509Z,1.30
2022-12-03T21:29:24.799Z,1.20
2022-12-03T21:31:52.423Z,1.30
2022-12-03T21:34:19.828Z,1.30
2022-12-03T21:36:47.267Z,1.30
2022-12-03T21:39:14.731Z,1.30
2022-12-03T21:42:34.658Z,1.40
2022-12-03T21:44:29.548Z,1.40
2022-12-03T21:47:12.463Z,1.30
2022-12-03T21:49:41.798Z,1.30
2022-12-03T21:52:09.768Z,1.30
2022-12-03T21:54:37.227Z,1.40
2022-12-03T21:57:04.663Z,1.40
2022-12-03T21:59:32.216Z,1.50
2022-12-03T22:01:59.671Z,1.60
2022-12-03T22:04:27.174Z,1.60
2022-12-03T22:06:55.332Z,1.50
2022-12-03T22:09:26.475Z,1.50
2022-12-03T22:11:57.059Z,1.50
2022-12-03T22:14:24.550Z,1.50
2022-12-03T22:16:52.007Z,1.40
2022-12-03T22:19:22.672Z,1.50
2022-12-03T22:21:50.388Z,1.50
2022-12-03T22:24:19.389Z,1.40
2022-12-03T22:26:47.742Z,1.40
2022-12-03T22:29:15.757Z,1.50
2022-12-03T22:31:43.347Z,1.40
2022-12-03T22:34:10.779Z,1.40
2022-12-03T22:36:38.330Z,1.40
2022-12-03T22:39:05.929Z,1.40
2022-12-03T22:41:33.362Z,1.40
2022-12-03T22:44:00.770Z,1.30
2022-12-03T22:46:28.234Z,1.30
2022-12-03T22:48:55.719Z,1.30
2022-12-03T22:51:25.388Z,1.30
2022-12-03T22:53:59.060Z,1.30
2022-12-03T22:56:29.768Z,1.30
2022-12-03T22:58:57.752Z,1.40
2022-12-03T23:01:34.387Z,1.40
2022-12-03T23:04:03.009Z,1.30
2022-12-03T23:06:31.911Z,1.40
2022-12-03T23:08:59.874Z,1.40
2022-12-03T23:11:28.348Z,1.40
2022-12-03T23:13:56.877Z,1.30
2022-12-03T23:16:29.129Z,1.40
2022-12-03T23:19:02.567Z,1.40
2022-12-03T23:21:33.464Z,1.40
2022-12-03T23:24:03.860Z,1.30
2022-12-03T23:26:36.148Z,1.40
2022-12-03T23:29:04.876Z,1.30
2022-12-03T23:31:34.099Z,1.30
2022-12-03T23:34:02.118Z,1.30
2022-12-03T23:36:32.434Z,1.30
2022-12-03T23:38:59.997Z,1.40
2022-12-03T23:41:27.778Z,1.30
2022-12-03T23:43:56.847Z,1.40
2022-12-03T23:46:27.530Z,1.40
2022-12-03T23:48:55.693Z,1.40
2022-12-03T23:51:25.342Z,1.40
2022-12-03T23:53:54.748Z,1.50
2022-12-03T23:56:29.486Z,1.50
2022-12-03T23:58:58.258Z,1.50
